Time;durP1;ratioP1;P1;durP2;ratioP2;P2;SDS_P1;SDS_P2;PMS_P1;PMS_P2;Temp;Humidity;BMP_temperature;BMP_pressure;BME280_temperature;BME280_humidity;BME280_pressure;Samples;Min_cycle;Max_cycle;Signal;HPM_P1;HPM_P2
2020/12/21 00:01:15;;;;;;;4.17;3.87;;;;;;;7.64;97.68;101767.22;6009009;29;20960;-79
2020/12/21 00:04:18;;;;;;;4.43;4.17;;;;;;;7.61;98.33;101767.56;6035165;29;20299;-79
2020/12/21 00:07:23;;;;;;;4.18;3.97;;;;;;;7.67;98.58;101761.44;6016233;29;20243;-78
2020/12/21 00:10:29;;;;;;;4.40;4.10;;;;;;;7.56;98.54;101760.78;6011808;29;20195;-78
2020/12/21 00:13:34;;;;;;;4.00;3.80;;;;;;;7.60;98.69;101755.00;6018421;29;20207;-77
2020/12/21 00:16:45;;;;;;;4.70;4.30;;;;;;;7.44;99.07;101750.47;6011081;29;20322;-79
2020/12/21 00:19:48;;;;;;;4.57;4.27;;;;;;;7.35;99.69;101757.78;6008925;29;20294;-79
2020/12/21 00:22:52;;;;;;;6.27;4.20;;;;;;;7.35;100.00;101757.78;6014810;29;20200;-79
2020/12/21 00:25:56;;;;;;;4.63;4.27;;;;;;;7.34;100.00;101750.69;6023849;29;20215;-80
2020/12/21 00:29:00;;;;;;;4.90;4.60;;;;;;;7.41;100.00;101762.53;6003640;29;20568;-80
2020/12/21 00:32:04;;;;;;;4.00;3.70;;;;;;;7.33;100.00;101759.84;6011847;29;20209;-78
2020/12/21 00:35:12;;;;;;;5.03;4.40;;;;;;;7.39;100.00;101756.44;6007015;29;20235;-79
2020/12/21 00:38:21;;;;;;;4.63;4.32;;;;;;;7.31;100.00;101734.75;6008027;29;20624;-79
2020/12/21 00:41:25;;;;;;;4.10;4.00;;;;;;;7.40;100.00;101760.84;6007507;29;20344;-78
2020/12/21 00:44:31;;;;;;;4.40;4.10;;;;;;;7.44;100.00;101756.75;6011358;29;20218;-77
2020/12/21 00:47:35;;;;;;;4.53;4.23;;;;;;;7.56;99.17;101766.22;6005270;29;20310;-77
2020/12/21 00:50:40;;;;;;;4.93;4.60;;;;;;;7.63;98.84;101776.41;6016544;29;20815;-80
2020/12/21 00:53:47;;;;;;;4.60;4.23;;;;;;;7.26;100.00;101758.84;6006408;29;20243;-78
2020/12/21 00:56:50;;;;;;;4.93;4.63;;;;;;;7.32;100.00;101769.00;6006840;29;20227;-78
2020/12/21 00:59:53;;;;;;;4.93;4.63;;;;;;;7.38;100.00;101779.16;6006808;29;20654;-79
2020/12/21 01:02:56;;;;;;;5.13;4.70;;;;;;;7.33;100.00;101776.13;6007888;29;20195;-78
2020/12/21 01:06:00;;;;;;;5.30;4.90;;;;;;;7.31;100.00;101774.59;6014305;29;20338;-79
2020/12/21 01:09:10;;;;;;;5.60;5.10;;;;;;;7.47;100.00;101767.25;6019943;29;20231;-83
2020/12/21 01:12:14;;;;;;;5.43;5.03;;;;;;;7.63;99.14;101776.41;6021305;29;20199;-79
2020/12/21 01:15:18;;;;;;;5.57;5.17;;;;;;;7.66;99.17;101776.03;5998585;29;20212;-79
2020/12/21 01:18:27;;;;;;;5.87;5.27;;;;;;;7.69;98.20;101767.53;6003675;29;20272;-78
2020/12/21 01:21:31;;;;;;;5.57;5.17;;;;;;;7.74;98.38;101781.44;6014384;29;20222;-81
2020/12/21 01:24:38;;;;;;;5.83;5.20;;;;;;;7.69;97.01;101743.06;6011675;29;20584;-79
2020/12/21 01:27:42;;;;;;;4.93;4.40;;;;;;;8.09;95.52;101789.91;6006358;29;20212;-80
2020/12/21 01:30:45;;;;;;;4.53;4.23;;;;;;;8.05;94.56;101766.00;6008084;29;20206;-79
2020/12/21 01:33:51;;;;;;;4.10;3.77;;;;;;;7.95;95.30;101770.81;6012081;29;20203;-80
2020/12/21 01:36:54;;;;;;;3.97;3.77;;;;;;;8.06;95.20;101765.00;6004937;29;20276;-79
2020/12/21 01:39:59;;;;;;;4.10;3.77;;;;;;;8.06;95.20;101778.56;6004861;29;20605;-78
2020/12/21 01:43:02;;;;;;;3.83;3.67;;;;;;;7.99;95.10;101761.25;6007161;29;20291;-79
2020/12/21 01:46:11;;;;;;;3.87;3.63;;;;;;;8.01;95.50;101775.53;6010129;29;20243;-79
2020/12/21 01:49:15;;;;;;;3.77;3.57;;;;;;;7.87;96.14;101751.81;6003587;29;20203;-79
2020/12/21 01:52:19;;;;;;;4.00;3.70;;;;;;;7.90;96.37;101756.91;6001471;29;20228;-79
2020/12/21 01:55:24;;;;;;;3.63;3.43;;;;;;;7.81;96.28;101741.66;6006236;29;20307;-79
2020/12/21 01:58:28;;;;;;;3.63;3.43;;;;;;;7.79;95.77;101722.81;6001304;29;20203;-79
2020/12/21 02:01:33;;;;;;;3.83;3.73;;;;;;;7.92;96.22;101765.72;6009909;29;20242;-79
2020/12/21 02:04:36;;;;;;;3.30;3.20;;;;;;;7.93;96.42;101751.97;6004708;29;20619;-79
2020/12/21 02:07:39;;;;;;;3.40;3.20;;;;;;;7.97;96.28;101747.00;6008301;29;20208;-78
2020/12/21 02:10:44;;;;;;;3.15;3.05;;;;;;;8.07;95.23;101744.91;6017076;29;20206;-79
2020/12/21 02:13:47;;;;;;;3.35;3.25;;;;;;;7.91;95.02;101724.13;6010095;29;20635;-78
2020/12/21 02:16:50;;;;;;;3.33;3.20;;;;;;;8.13;94.62;101747.78;6024697;29;20293;-81
2020/12/21 02:19:54;;;;;;;3.00;3.00;;;;;;;8.05;95.09;101750.56;6005664;29;20208;-79
2020/12/21 02:22:58;;;;;;;3.20;3.10;;;;;;;8.07;94.30;101737.63;6004854;29;20282;-79
2020/12/21 02:26:02;;;;;;;3.13;3.03;;;;;;;8.17;94.35;101748.25;6014540;29;20705;-80
2020/12/21 02:29:05;;;;;;;3.17;3.07;;;;;;;7.91;94.27;101696.94;6007031;29;20235;-79
2020/12/21 02:32:12;;;;;;;3.77;3.47;;;;;;;8.04;94.49;101731.69;5995406;29;20239;-79
2020/12/21 02:35:31;;;;;;;3.27;3.17;;;;;;;8.15;94.19;101734.84;6010718;29;20204;-79
2020/12/21 02:38:36;;;;;;;3.10;3.00;;;;;;;8.12;94.17;101737.06;6006539;29;20263;-78
2020/12/21 02:41:41;;;;;;;3.13;3.03;;;;;;;7.98;94.85;101710.69;6004774;29;20293;-79
2020/12/21 02:44:44;;;;;;;3.90;3.70;;;;;;;8.15;94.15;101734.00;6009101;29;20673;-77
2020/12/21 02:47:48;;;;;;;3.40;3.30;;;;;;;8.05;94.55;101733.38;6003480;29;20672;-78
2020/12/21 02:50:51;;;;;;;3.70;3.50;;;;;;;8.07;94.97;101728.59;6006674;29;20276;-79
2020/12/21 02:53:56;;;;;;;6.47;3.67;;;;;;;8.04;94.93;101727.09;6007370;29;20487;-79
2020/12/21 02:56:59;;;;;;;5.17;3.73;;;;;;;7.96;96.09;101726.31;6006239;29;20226;-78
2020/12/21 03:00:04;;;;;;;4.10;3.90;;;;;;;7.94;96.24;101741.94;6011599;29;20215;-81
2020/12/21 03:03:17;;;;;;;3.97;3.80;;;;;;;7.71;96.27;101692.13;6012257;29;20234;-79
2020/12/21 03:06:20;;;;;;;3.93;3.73;;;;;;;7.97;96.15;101730.72;6004337;29;20223;-80
2020/12/21 03:09:24;;;;;;;4.23;3.93;;;;;;;7.96;96.61;101729.03;6004900;29;20304;-79
2020/12/21 03:12:28;;;;;;;4.20;3.95;;;;;;;8.04;95.91;101732.53;6007722;29;20203;-78
2020/12/21 03:15:32;;;;;;;3.67;3.57;;;;;;;8.03;95.80;101732.72;6000280;29;20584;-79
2020/12/21 03:18:35;;;;;;;4.33;4.07;;;;;;;7.86;96.75;101728.38;6009152;29;20230;-78
2020/12/21 03:21:39;;;;;;;4.30;4.10;;;;;;;7.84;96.39;101705.97;6020070;29;20382;-80
2020/12/21 03:24:43;;;;;;;3.65;3.55;;;;;;;8.08;95.90;101727.59;6007614;29;20334;-78
2020/12/21 03:27:46;;;;;;;4.70;4.40;;;;;;;8.08;95.60;101727.59;6003018;29;20844;-79
2020/12/21 03:30:49;;;;;;;4.40;4.10;;;;;;;8.10;95.45;101717.38;6006488;29;20674;-80
2020/12/21 03:33:53;;;;;;;4.13;3.80;;;;;;;8.10;95.54;101715.53;6014466;29;20207;-77
2020/12/21 03:36:57;;;;;;;4.03;3.70;;;;;;;8.01;95.87;101705.72;6014292;29;20223;-80
2020/12/21 03:40:03;;;;;;;3.90;3.80;;;;;;;8.00;96.01;101700.47;6015952;29;20492;-80
2020/12/21 03:43:09;;;;;;;3.72;3.63;;;;;;;8.11;95.91;101705.50;6017275;29;20214;-80
2020/12/21 03:46:12;;;;;;;4.37;4.10;;;;;;;7.89;96.84;101700.88;6008166;29;20612;-79
2020/12/21 03:49:16;;;;;;;4.55;4.18;;;;;;;7.97;96.83;101703.53;6014244;29;20697;-80
2020/12/21 03:52:19;;;;;;;5.10;4.70;;;;;;;7.76;98.61;101701.44;6015433;29;20367;-82
2020/12/21 03:55:23;;;;;;;5.45;4.65;;;;;;;7.81;98.44;101696.31;6007771;29;20231;-80
2020/12/21 03:58:27;;;;;;;4.70;4.40;;;;;;;7.80;98.14;101680.22;6011290;29;20227;-79
2020/12/21 04:01:30;;;;;;;4.30;4.00;;;;;;;8.02;97.02;101706.56;6014094;29;20305;-80
2020/12/21 04:04:34;;;;;;;4.20;3.90;;;;;;;8.08;96.27;101694.97;6006219;29;20674;-80
2020/12/21 04:07:38;;;;;;;4.60;4.22;;;;;;;8.14;95.70;101683.38;6008744;29;20299;-79
2020/12/21 04:10:44;;;;;;;4.70;4.40;;;;;;;8.08;96.10;101694.97;5999215;29;20287;-79
2020/12/21 04:13:47;;;;;;;4.75;4.38;;;;;;;7.66;98.73;101673.66;6005987;29;20221;-78
2020/12/21 04:16:51;;;;;;;4.75;4.40;;;;;;;7.52;99.59;101671.72;6002168;29;20223;-79
2020/12/21 04:19:54;;;;;;;4.77;4.37;;;;;;;7.58;100.00;101685.41;6007832;29;20589;-78
2020/12/21 04:22:57;;;;;;;5.37;4.97;;;;;;;7.62;100.00;101679.63;6011182;29;20335;-79
2020/12/21 04:26:01;;;;;;;5.32;4.80;;;;;;;7.68;100.00;101687.91;5993052;29;20211;-79
2020/12/21 04:29:08;;;;;;;5.37;4.87;;;;;;;7.56;100.00;101695.63;6025697;29;20208;-79
2020/12/21 04:32:13;;;;;;;5.53;4.77;;;;;;;7.42;100.00;101688.19;6003675;29;20290;-79
2020/12/21 04:35:19;;;;;;;4.80;4.50;;;;;;;7.49;100.00;101688.34;6004049;29;20206;-78
2020/12/21 04:38:22;;;;;;;4.83;4.53;;;;;;;7.70;100.00;101690.47;6006766;29;20243;-79
2020/12/21 04:41:27;;;;;;;4.78;4.07;;;;;;;7.72;100.00;101696.56;6010076;29;20210;-79
2020/12/21 04:44:30;;;;;;;4.97;4.60;;;;;;;7.73;100.00;101687.41;6003277;29;20212;-79
2020/12/21 04:47:34;;;;;;;4.77;4.47;;;;;;;7.55;99.92;101677.63;6001684;29;20207;-78
2020/12/21 04:50:38;;;;;;;4.70;4.40;;;;;;;7.66;99.68;101678.25;6014073;29;20349;-79
2020/12/21 04:53:41;;;;;;;4.75;4.35;;;;;;;7.72;100.00;101688.41;6012627;29;20246;-78
2020/12/21 04:56:46;;;;;;;5.00;4.40;;;;;;;7.62;100.00;101676.91;6006921;29;20298;-78
2020/12/21 04:59:49;;;;;;;6.17;4.57;;;;;;;7.73;100.00;101668.38;6008438;29;20196;-78
2020/12/21 05:02:55;;;;;;;4.93;4.53;;;;;;;7.66;100.00;101667.38;6008457;29;20220;-78
2020/12/21 05:06:06;;;;;;;4.63;4.30;;;;;;;7.78;99.91;101672.22;6014684;29;20215;-79
2020/12/21 05:09:09;;;;;;;5.03;4.70;;;;;;;7.68;100.00;101660.75;6007371;29;20223;-78
2020/12/21 05:12:16;;;;;;;3.97;3.77;;;;;;;7.41;100.00;101624.06;6008299;29;20204;-79
2020/12/21 05:15:20;;;;;;;5.00;4.50;;;;;;;7.70;100.00;101647.00;6005943;29;20335;-79
2020/12/21 05:18:29;;;;;;;6.70;4.70;;;;;;;7.68;100.00;101659.91;6012016;29;20240;-78
2020/12/21 05:21:33;;;;;;;4.70;4.15;;;;;;;7.76;100.00;101662.56;6011334;29;20204;-79
2020/12/21 05:24:37;;;;;;;4.03;3.83;;;;;;;7.69;99.73;101661.59;5997050;29;20207;-79
2020/12/21 05:27:42;;;;;;;67.78;39.75;;;;;;;7.65;100.00;101655.69;6005887;29;20540;-76
2020/12/21 05:30:58;;;;;;;5.00;4.60;;;;;;;7.74;99.82;101653.75;6001618;29;20291;-78
2020/12/21 05:34:01;;;;;;;4.83;3.90;;;;;;;7.74;100.00;101653.75;6028189;29;20198;-82
2020/12/21 05:37:18;;;;;;;4.87;4.13;;;;;;;7.70;99.30;101658.72;5996899;29;20223;-79
2020/12/21 05:40:25;;;;;;;4.63;4.22;;;;;;;7.80;99.42;101648.47;6007372;29;20199;-80
2020/12/21 05:43:30;;;;;;;3.97;3.73;;;;;;;7.50;100.00;101647.44;6016298;29;20219;-79
2020/12/21 05:46:33;;;;;;;3.93;3.63;;;;;;;7.67;99.74;101636.47;6011712;29;20340;-78
2020/12/21 05:49:44;;;;;;;4.30;3.80;;;;;;;7.84;98.42;101643.50;6002436;29;20589;-78
2020/12/21 05:52:54;;;;;;;3.80;3.70;;;;;;;7.79;98.33;101643.19;6011411;29;20254;-77
2020/12/21 05:55:57;;;;;;;4.70;3.90;;;;;;;7.60;99.67;101640.94;5999389;29;20321;-80
2020/12/21 05:59:03;;;;;;;3.83;3.63;;;;;;;7.62;99.69;101641.59;6014513;29;20226;-80
2020/12/21 06:02:08;;;;;;;4.22;3.97;;;;;;;7.65;99.40;101641.25;6006866;29;20211;-79
2020/12/21 06:05:12;;;;;;;4.43;4.13;;;;;;;7.46;100.00;101635.25;6004269;29;20293;-80
2020/12/21 06:08:21;;;;;;;4.10;3.80;;;;;;;7.42;100.00;101639.31;6014614;29;20615;-81
2020/12/21 06:11:26;;;;;;;4.60;3.77;;;;;;;7.34;99.90;101609.53;6008014;29;20772;-78
2020/12/21 06:14:32;;;;;;;4.00;3.80;;;;;;;7.55;99.62;101631.44;6002864;29;20212;-78
2020/12/21 06:17:35;;;;;;;4.40;4.00;;;;;;;7.41;100.00;101626.78;6005759;29;20219;-77
2020/12/21 06:20:54;;;;;;;5.80;4.13;;;;;;;7.71;98.69;101643.25;6006156;29;20558;-78
2020/12/21 06:23:58;;;;;;;6.83;3.73;;;;;;;7.54;99.24;101624.34;5999995;29;20213;-78
2020/12/21 06:27:12;;;;;;;5.77;4.30;;;;;;;7.42;99.83;101623.03;6009282;29;20202;-77
2020/12/21 06:30:29;;;;;;;4.30;3.73;;;;;;;7.46;100.00;101632.53;6005912;29;20325;-80
2020/12/21 06:33:38;;;;;;;4.20;3.50;;;;;;;7.31;100.00;101609.88;6004234;29;20209;-79
2020/12/21 06:36:42;;;;;;;6.53;3.80;;;;;;;7.46;100.00;101621.66;6004572;29;20216;-77
2020/12/21 06:39:56;;;;;;;4.40;4.20;;;;;;;7.42;100.00;101617.59;6021945;29;20188;-81
2020/12/21 06:43:10;;;;;;;3.90;3.70;;;;;;;7.40;99.83;101597.94;6010387;29;20199;-79
2020/12/21 06:46:15;;;;;;;3.93;3.63;;;;;;;7.60;99.53;101621.94;6008730;29;20291;-80
2020/12/21 06:49:19;;;;;;;3.73;3.40;;;;;;;7.85;97.88;101612.59;5998290;29;20212;-80
2020/12/21 06:52:22;;;;;;;3.23;3.13;;;;;;;7.82;98.18;101623.81;5991592;29;20606;-78
2020/12/21 06:55:33;;;;;;;3.40;3.20;;;;;;;7.64;99.01;101615.97;6000515;29;20271;-79
2020/12/21 06:58:36;;;;;;;3.67;3.30;;;;;;;7.75;98.36;101617.44;6004865;29;20219;-80
2020/12/21 07:01:42;;;;;;;3.45;3.15;;;;;;;7.63;99.42;101618.88;5999756;29;20204;-79
2020/12/21 07:04:45;;;;;;;3.60;3.40;;;;;;;7.50;100.00;101614.84;6005718;29;20374;-80
2020/12/21 07:07:57;;;;;;;3.50;3.20;;;;;;;7.60;100.00;101616.50;6011228;29;20679;-79
2020/12/21 07:11:00;;;;;;;3.43;3.10;;;;;;;7.61;99.90;101619.03;6015825;29;20203;-79
2020/12/21 07:14:07;;;;;;;3.38;3.10;;;;;;;7.67;98.77;101614.75;6020066;29;20695;-79
2020/12/21 07:17:12;;;;;;;4.07;3.73;;;;;;;7.62;100.00;101612.59;6008800;29;20325;-80
2020/12/21 07:20:17;;;;;;;3.10;2.85;;;;;;;7.51;99.78;101616.53;6004989;29;20683;-80
2020/12/21 07:23:24;;;;;;;3.97;3.63;;;;;;;7.47;100.00;101604.34;6010400;29;20238;-80
2020/12/21 07:26:28;;;;;;;3.60;2.80;;;;;;;7.63;99.37;101616.16;6000437;29;20199;-79
2020/12/21 07:29:32;;;;;;;2.60;2.50;;;;;;;7.50;99.63;101595.84;6011664;29;20211;-79
2020/12/21 07:32:36;;;;;;;2.92;2.83;;;;;;;7.64;99.38;101604.25;6006273;29;20228;-80
2020/12/21 07:35:39;;;;;;;2.90;2.80;;;;;;;7.55;100.00;101609.72;5999961;29;20207;-79
2020/12/21 07:38:43;;;;;;;3.00;2.80;;;;;;;7.63;99.60;101602.56;6007600;29;20306;-79
2020/12/21 07:41:48;;;;;;;2.83;2.65;;;;;;;7.62;99.45;101601.72;6002859;29;20239;-79
2020/12/21 07:44:58;;;;;;;2.70;2.35;;;;;;;7.71;98.93;101594.34;6010601;29;20204;-82
2020/12/21 07:48:06;;;;;;;2.70;2.50;;;;;;;7.78;98.38;101611.63;6015733;29;20302;-78
2020/12/21 07:51:10;;;;;;;2.30;2.28;;;;;;;7.77;97.62;101593.63;6009281;29;20253;-79
2020/12/21 07:54:15;;;;;;;2.50;2.47;;;;;;;7.75;98.23;101595.69;6002762;29;20247;-79
2020/12/21 07:57:19;;;;;;;2.43;2.33;;;;;;;7.51;99.15;101602.97;5999351;29;20203;-79
2020/12/21 08:00:22;;;;;;;3.63;2.50;;;;;;;7.56;99.91;101619.56;6011281;29;20225;-80
2020/12/21 08:03:39;;;;;;;2.97;2.40;;;;;;;7.50;99.91;101617.56;6002931;29;20260;-79
2020/12/21 08:06:44;;;;;;;2.30;2.20;;;;;;;7.59;99.75;101615.66;6002844;29;20207;-80
2020/12/21 08:09:50;;;;;;;2.33;2.23;;;;;;;7.85;98.47;101609.88;6006586;29;20617;-79
2020/12/21 08:12:53;;;;;;;2.20;2.10;;;;;;;7.80;98.21;101620.44;6005546;29;20208;-79
2020/12/21 08:16:07;;;;;;;5.13;2.37;;;;;;;7.70;98.07;101588.09;6002957;29;20271;-80
2020/12/21 08:19:20;;;;;;;2.27;2.27;;;;;;;7.82;98.39;101615.66;6016345;29;20271;-79
2020/12/21 08:22:25;;;;;;;1.83;1.83;;;;;;;7.79;98.12;101624.19;6000876;29;20294;-80
2020/12/21 08:25:28;;;;;;;2.13;2.03;;;;;;;7.72;98.52;101606.91;6008924;29;20827;-79
2020/12/21 08:28:35;;;;;;;2.77;2.57;;;;;;;7.62;99.29;101604.44;6008653;29;20336;-80
2020/12/21 08:31:43;;;;;;;2.43;2.23;;;;;;;7.57;99.59;101621.25;6007986;29;20306;-79
2020/12/21 08:34:57;;;;;;;2.72;2.63;;;;;;;7.66;98.65;101618.47;6008662;29;20215;-78
2020/12/21 08:38:05;;;;;;;2.58;2.55;;;;;;;7.67;98.84;101614.75;6008751;29;20240;-79
2020/12/21 08:41:10;;;;;;;2.83;2.60;;;;;;;7.67;98.90;101606.59;6009970;29;20188;-80
2020/12/21 08:44:19;;;;;;;2.78;2.67;;;;;;;7.81;98.48;101628.41;6009511;29;20203;-80
2020/12/21 08:47:25;;;;;;;3.47;2.28;;;;;;;7.90;97.36;101615.63;6013018;29;20294;-81
2020/12/21 08:50:29;;;;;;;2.60;2.40;;;;;;;8.00;96.82;101627.09;6016909;29;20228;-78
2020/12/21 08:53:32;;;;;;;2.42;2.17;;;;;;;8.00;96.64;101621.66;6029240;29;20235;-79
2020/12/21 08:56:35;;;;;;;2.58;2.53;;;;;;;8.11;95.63;101621.25;6012638;29;20207;-79
2020/12/21 08:59:40;;;;;;;2.95;2.75;;;;;;;8.03;96.23;101621.28;6011018;29;20238;-79
2020/12/21 09:02:43;;;;;;;2.80;2.70;;;;;;;7.88;96.84;101612.25;6015029;29;20203;-80
2020/12/21 09:05:47;;;;;;;2.40;2.40;;;;;;;7.88;95.81;101612.25;6012371;29;20203;-81
2020/12/21 09:08:51;;;;;;;2.40;2.40;;;;;;;7.70;96.86;101592.69;6007216;29;21531;-76
2020/12/21 09:11:55;;;;;;;2.60;2.60;;;;;;;7.93;96.90;101628.84;6010047;29;20215;-80
2020/12/21 09:14:58;;;;;;;2.90;2.58;;;;;;;7.84;97.84;101627.19;6005158;29;20289;-79
2020/12/21 09:18:01;;;;;;;3.05;2.85;;;;;;;7.77;97.87;101628.94;6010415;29;20380;-78
2020/12/21 09:21:08;;;;;;;3.05;2.92;;;;;;;7.87;97.50;101615.97;6007988;29;20199;-77
2020/12/21 09:24:11;;;;;;;3.33;3.10;;;;;;;7.86;97.22;101619.72;6010807;29;20215;-77
2020/12/21 09:27:16;;;;;;;4.22;2.67;;;;;;;7.91;97.23;101620.03;6014090;29;20259;-82
2020/12/21 09:30:19;;;;;;;3.50;3.00;;;;;;;8.03;95.86;101632.16;6018131;29;20690;-84
2020/12/21 09:33:30;;;;;;;2.90;2.70;;;;;;;7.56;96.64;101603.28;6023476;29;20235;-82
2020/12/21 09:36:35;;;;;;;3.13;2.93;;;;;;;7.68;97.45;101621.88;6023613;29;20215;-79
2020/12/21 09:39:45;;;;;;;3.30;3.20;;;;;;;7.87;96.48;101622.25;6027537;29;20227;-82
2020/12/21 09:42:49;;;;;;;2.97;2.88;;;;;;;8.05;95.12;101613.81;6026905;29;20183;-81
2020/12/21 09:45:52;;;;;;;2.95;2.85;;;;;;;7.88;95.31;101601.38;6025628;29;20187;-84
2020/12/21 09:48:58;;;;;;;3.40;3.30;;;;;;;7.77;96.03;101593.63;6024629;29;20192;-82
2020/12/21 09:52:02;;;;;;;3.90;3.28;;;;;;;7.87;96.78;101595.09;6018535;29;20235;-79
2020/12/21 09:55:06;;;;;;;3.25;3.00;;;;;;;7.92;95.87;101608.13;6014480;29;20299;-80
2020/12/21 09:58:12;;;;;;;3.20;3.10;;;;;;;7.80;95.83;101582.41;6033567;29;20244;-83
2020/12/21 10:01:17;;;;;;;3.63;3.50;;;;;;;8.06;95.85;101616.31;6015067;29;20681;-79
2020/12/21 10:04:21;;;;;;;3.53;3.22;;;;;;;8.09;95.42;101626.84;6012073;29;20467;-78
2020/12/21 10:07:24;;;;;;;3.50;3.33;;;;;;;8.18;94.86;101614.03;6004912;29;20283;-80
2020/12/21 10:10:28;;;;;;;4.43;3.33;;;;;;;7.97;94.84;101598.41;6008421;29;20203;-78
2020/12/21 10:13:32;;;;;;;3.35;3.15;;;;;;;7.85;96.10;101607.16;6007043;29;20259;-80
2020/12/21 10:16:36;;;;;;;3.33;3.22;;;;;;;7.92;95.94;101614.41;6007700;29;20207;-81
2020/12/21 10:19:39;;;;;;;3.92;3.70;;;;;;;7.97;96.01;101611.16;6013925;29;20431;-79
2020/12/21 10:22:43;;;;;;;3.80;3.60;;;;;;;7.72;95.90;101571.59;6008173;29;20203;-80
2020/12/21 10:25:47;;;;;;;5.88;3.53;;;;;;;8.05;94.88;101608.38;6024481;29;20218;-80
2020/12/21 10:28:50;;;;;;;5.78;3.20;;;;;;;8.12;93.49;101606.59;6010517;29;20203;-77
2020/12/21 10:31:56;;;;;;;3.63;3.40;;;;;;;7.86;93.79;101587.09;6007469;29;20298;-80
2020/12/21 10:35:00;;;;;;;3.60;3.40;;;;;;;7.94;94.98;101606.06;6016969;29;20204;-83
2020/12/21 10:38:06;;;;;;;4.60;3.42;;;;;;;8.01;93.78;101596.19;6025486;29;20279;-82
2020/12/21 10:41:11;;;;;;;5.68;3.28;;;;;;;7.81;93.79;101616.69;6023628;29;20195;-81
2020/12/21 10:44:14;;;;;;;4.00;3.40;;;;;;;7.91;94.34;101612.72;6025669;29;20530;-88
2020/12/21 10:47:18;;;;;;;3.63;3.30;;;;;;;7.87;93.25;101573.34;6026738;29;20652;-86
2020/12/21 10:50:21;;;;;;;4.20;3.80;;;;;;;7.60;94.25;101570.34;6027115;29;20275;-80
2020/12/21 10:53:26;;;;;;;4.22;3.90;;;;;;;7.96;95.37;101609.47;6008800;29;20246;-77
2020/12/21 10:56:30;;;;;;;6.13;4.00;;;;;;;8.08;94.70;101616.16;6011728;29;20199;-81
2020/12/21 10:59:33;;;;;;;4.25;3.70;;;;;;;8.11;94.38;101602.22;5996517;29;20212;-81
2020/12/21 11:02:37;;;;;;;4.82;4.43;;;;;;;8.14;94.23;101612.69;6020182;29;20207;-79
2020/12/21 11:05:41;;;;;;;3.83;3.70;;;;;;;8.09;93.29;101596.09;6030120;29;20530;-81
2020/12/21 11:08:46;;;;;;;4.07;3.70;;;;;;;8.00;93.27;101600.75;6016554;29;20222;-84
2020/12/21 11:12:14;;;;;;;4.65;3.50;;;;;;;8.07;93.63;101606.31;6016680;29;20278;-78
2020/12/21 11:15:37;;;;;;;4.38;4.00;;;;;;;8.08;94.11;101603.44;6007259;29;20260;-79
2020/12/21 11:18:40;;;;;;;7.72;4.43;;;;;;;8.19;93.04;101613.84;6005949;29;20299;-81
2020/12/21 11:21:44;;;;;;;4.43;4.13;;;;;;;8.07;92.83;101596.28;6006238;29;20207;-80
2020/12/21 11:24:49;;;;;;;3.80;3.60;;;;;;;7.68;94.21;101586.59;6012365;29;20199;-82
2020/12/21 11:27:52;;;;;;;7.20;4.00;;;;;;;7.92;94.01;101610.84;6026148;29;20187;-82
2020/12/21 11:30:56;;;;;;;4.38;3.95;;;;;;;8.00;94.03;101599.91;6004723;29;20227;-84
2020/12/21 11:33:59;;;;;;;4.45;3.53;;;;;;;8.00;92.62;101559.16;6015447;29;20211;-77
2020/12/21 11:37:02;;;;;;;4.65;3.67;;;;;;;8.20;92.83;101601.09;6021305;29;20226;-78
2020/12/21 11:40:08;;;;;;;4.57;3.83;;;;;;;8.22;92.85;101598.22;6010533;29;20219;-79
2020/12/21 11:43:15;;;;;;;4.07;3.78;;;;;;;7.91;93.37;101568.41;6015871;29;20204;-82
2020/12/21 11:46:18;;;;;;;4.85;3.83;;;;;;;8.05;93.76;101586.63;6021406;29;20242;-81
2020/12/21 11:49:23;;;;;;;4.22;3.63;;;;;;;7.89;93.51;101582.16;6012829;29;20372;-82
2020/12/21 11:52:30;;;;;;;7.47;3.60;;;;;;;7.77;93.41;101533.88;6019467;29;20228;-83
2020/12/21 11:55:34;;;;;;;3.17;3.05;;;;;;;8.13;93.45;101583.84;6027786;29;20263;-80
2020/12/21 11:58:39;;;;;;;3.42;3.22;;;;;;;7.82;93.67;101572.19;6027700;29;20223;-78
2020/12/21 12:01:42;;;;;;;3.97;3.50;;;;;;;7.98;93.43;101558.50;6027565;29;20286;-82
2020/12/21 12:04:46;;;;;;;3.63;3.40;;;;;;;7.98;93.22;101583.81;6032197;29;20204;-82
2020/12/21 12:07:50;;;;;;;4.60;3.50;;;;;;;7.97;94.28;101573.09;6024371;29;20306;-79
2020/12/21 12:10:54;;;;;;;3.22;3.03;;;;;;;8.00;93.40;101561.88;6034405;29;20299;-81
2020/12/21 12:13:57;;;;;;;3.05;2.90;;;;;;;7.93;93.57;101533.75;6017184;29;20196;-81
2020/12/21 12:17:00;;;;;;;4.93;3.80;;;;;;;7.94;94.33;101578.88;6021144;29;20261;-79
2020/12/21 12:20:05;;;;;;;3.97;3.55;;;;;;;7.82;94.60;101577.63;6013016;29;20522;-79
2020/12/21 12:23:15;;;;;;;3.90;3.40;;;;;;;7.79;95.04;101556.25;6012940;29;20290;-78
2020/12/21 12:26:20;;;;;;;3.55;3.25;;;;;;;7.93;93.62;101566.34;6003576;29;20203;-79
2020/12/21 12:29:23;;;;;;;5.95;3.85;;;;;;;7.97;94.33;101573.09;6013801;29;20255;-78
2020/12/21 12:32:28;;;;;;;3.60;3.43;;;;;;;7.60;94.81;101564.91;6022826;29;20231;-79
2020/12/21 12:35:31;;;;;;;4.00;3.80;;;;;;;7.84;94.35;101562.00;6021507;29;20298;-82
2020/12/21 12:38:35;;;;;;;5.63;3.30;;;;;;;7.83;94.25;101571.19;6017584;29;20227;-81
2020/12/21 12:41:41;;;;;;;6.80;3.97;;;;;;;7.84;93.20;101567.44;6021480;29;20195;-78
2020/12/21 12:44:45;;;;;;;4.07;3.60;;;;;;;7.74;92.97;101574.97;6010809;29;20668;-79
2020/12/21 12:47:48;;;;;;;5.13;3.50;;;;;;;7.81;93.62;101562.34;6010795;29;20200;-79
2020/12/21 12:50:51;;;;;;;3.75;3.50;;;;;;;7.73;93.28;101546.13;6016020;29;20276;-80
2020/12/21 12:53:55;;;;;;;5.78;4.18;;;;;;;7.93;92.21;101555.47;6019786;29;20259;-77
2020/12/21 12:57:00;;;;;;;4.40;4.10;;;;;;;7.86;92.91;101549.06;6011250;29;20247;-79
2020/12/21 13:00:05;;;;;;;5.40;4.07;;;;;;;7.64;93.40;101539.91;6000020;29;20230;-81
2020/12/21 13:03:27;;;;;;;3.80;3.60;;;;;;;7.49;93.41;101526.28;6011841;29;20660;-80
2020/12/21 13:06:30;;;;;;;3.80;3.60;;;;;;;7.72;93.03;101558.03;6004227;29;20283;-80
2020/12/21 13:09:34;;;;;;;6.63;3.60;;;;;;;7.87;92.48;101553.50;6009321;29;20216;-81
2020/12/21 13:12:38;;;;;;;4.00;3.67;;;;;;;7.60;93.03;101532.31;6015773;29;20205;-81
2020/12/21 13:15:41;;;;;;;4.28;3.17;;;;;;;7.55;93.65;101544.56;6022282;29;20199;-80
2020/12/21 13:18:44;;;;;;;3.80;3.50;;;;;;;7.68;93.28;101545.84;6015858;29;20262;-79
2020/12/21 13:21:47;;;;;;;3.55;3.25;;;;;;;7.88;92.35;101547.03;6011256;29;20207;-80
2020/12/21 13:24:50;;;;;;;3.73;3.43;;;;;;;7.91;92.07;101552.13;6010722;29;20200;-78
2020/12/21 13:27:55;;;;;;;4.90;3.70;;;;;;;7.52;93.05;101539.47;6009294;29;20200;-78
2020/12/21 13:30:58;;;;;;;3.53;3.37;;;;;;;7.67;93.48;101549.56;6009848;29;20284;-80
2020/12/21 13:34:02;;;;;;;4.60;3.43;;;;;;;7.77;93.17;101553.75;5990990;29;20207;-78
2020/12/21 13:37:10;;;;;;;4.38;3.63;;;;;;;7.73;92.80;101543.44;6008472;29;20200;-80
2020/12/21 13:40:17;;;;;;;5.80;3.70;;;;;;;7.60;93.24;101548.63;6009511;29;20223;-80
2020/12/21 13:43:25;;;;;;;3.25;3.00;;;;;;;7.36;94.63;101542.31;5994316;29;20204;-79
2020/12/21 13:46:29;;;;;;;4.20;3.30;;;;;;;7.58;93.49;101555.06;6005827;29;20211;-81
2020/12/21 13:49:33;;;;;;;3.58;3.38;;;;;;;7.49;93.36;101558.88;6013067;29;20214;-79
2020/12/21 13:52:36;;;;;;;5.40;3.50;;;;;;;7.53;93.75;101543.88;5998470;29;20246;-79
2020/12/21 13:55:40;;;;;;;4.13;3.57;;;;;;;7.47;93.87;101555.47;6009678;29;20611;-82
2020/12/21 13:58:44;;;;;;;6.43;3.50;;;;;;;7.58;93.81;101555.06;5998972;29;20207;-80
2020/12/21 14:01:47;;;;;;;5.00;3.50;;;;;;;7.43;94.26;101554.13;6021626;29;20370;-83
2020/12/21 14:04:51;;;;;;;3.20;3.00;;;;;;;7.43;94.34;101548.72;6032935;29;20250;-80
2020/12/21 14:07:54;;;;;;;3.23;2.90;;;;;;;7.54;94.42;101556.44;6001248;29;20210;-77
2020/12/21 14:10:57;;;;;;;3.92;3.10;;;;;;;7.49;94.67;101556.16;6019205;29;20231;-80
2020/12/21 14:14:01;;;;;;;8.40;3.30;;;;;;;7.48;94.53;101546.31;6021300;29;20614;-80
2020/12/21 14:17:05;;;;;;;7.40;3.23;;;;;;;7.37;95.18;101535.84;6021576;29;20197;-79
2020/12/21 14:20:12;;;;;;;3.28;3.15;;;;;;;7.73;93.36;101543.44;6011391;29;20583;-83
2020/12/21 14:23:21;;;;;;;3.92;3.28;;;;;;;7.78;92.64;101541.00;6041802;29;20206;-78
2020/12/21 14:26:27;;;;;;;4.28;3.20;;;;;;;7.51;92.51;101526.94;6033966;29;20483;-79
2020/12/21 14:29:33;;;;;;;4.28;3.53;;;;;;;7.75;92.67;101536.78;6020642;29;20207;-82